YQV weather

Yorkton Municipal Airport
Yorkton, Saskatchewan, Canada

Public forecast

Using degrees Celsius for public forecast. Weather courtesy of forecast.io.

METAR (pilot weather report)

Retrieved 2019/08/23 19:00 UTC (11 minutes ago):

CYQV 231900Z AUTO 15008KT 9SM OVC032 23/16 A2995 RMK SLP147 DENSITY ALT 2800FT

TAF (pilot weather forecast)

Retrieved 2019/08/23 18:42 UTC (29 minutes ago):

TAF CYQV 231738Z 2318/2406 12008KT P6SM BKN025 OVC050 TEMPO 2318/2321 BKN020 OVC050 FM232100 16012G22KT P6SM -SHRA SCT020 OVC040 TEMPO 2321/2406 BKN020 OVC040 PROB40 2321/2406 VRB20G30KT 3SM TSRA BKN020CB OVC040 RMK FCST BASED ON AUTO OBS. NXT FCST BY 240000Z